sensor_id;sensor_type;location;lat;lon;timestamp;pressure;altitude;pressure_sealevel;temperature;humidity
10464;BME280;5279;42.048;24.638;2023-03-21T00:02:23;97386.13;;;11.17;53.07
10464;BME280;5279;42.048;24.638;2023-03-21T00:04:50;97382.72;;;11.24;53.11
10464;BME280;5279;42.048;24.638;2023-03-21T00:07:17;97376.31;;;11.35;53.00
10464;BME280;5279;42.048;24.638;2023-03-21T00:09:44;97370.13;;;11.26;53.88
10464;BME280;5279;42.048;24.638;2023-03-21T00:12:11;97374.94;;;11.31;54.03
10464;BME280;5279;42.048;24.638;2023-03-21T00:14:38;97374.28;;;11.29;54.24
10464;BME280;5279;42.048;24.638;2023-03-21T00:17:05;97363.03;;;11.35;54.34
10464;BME280;5279;42.048;24.638;2023-03-21T00:19:48;97364.63;;;11.02;55.68
10464;BME280;5279;42.048;24.638;2023-03-21T00:22:15;97363.94;;;11.18;54.42
10464;BME280;5279;42.048;24.638;2023-03-21T00:24:42;97362.78;;;11.20;54.14
10464;BME280;5279;42.048;24.638;2023-03-21T00:27:09;97359.59;;;11.17;54.44
10464;BME280;5279;42.048;24.638;2023-03-21T00:29:38;97360.66;;;11.24;54.23
10464;BME280;5279;42.048;24.638;2023-03-21T00:32:05;97349.44;;;11.30;54.54
10464;BME280;5279;42.048;24.638;2023-03-21T00:34:31;97352.06;;;11.30;54.71
10464;BME280;5279;42.048;24.638;2023-03-21T00:37:00;97344.44;;;11.27;53.39
10464;BME280;5279;42.048;24.638;2023-03-21T00:39:27;97341.66;;;11.11;52.68
10464;BME280;5279;42.048;24.638;2023-03-21T00:41:54;97338.78;;;11.04;53.20
10464;BME280;5279;42.048;24.638;2023-03-21T00:44:20;97341.66;;;11.11;54.00
10464;BME280;5279;42.048;24.638;2023-03-21T00:46:48;97334.34;;;11.13;52.88
10464;BME280;5279;42.048;24.638;2023-03-21T00:49:15;97335.06;;;11.15;52.65
10464;BME280;5279;42.048;24.638;2023-03-21T00:51:42;97327.09;;;11.15;52.71
10464;BME280;5279;42.048;24.638;2023-03-21T00:54:11;97328.63;;;11.17;53.08
10464;BME280;5279;42.048;24.638;2023-03-21T00:56:38;97326.78;;;11.18;53.88
10464;BME280;5279;42.048;24.638;2023-03-21T00:59:05;97326.41;;;11.13;54.22
10464;BME280;5279;42.048;24.638;2023-03-21T01:01:32;97326.09;;;11.16;53.98
10464;BME280;5279;42.048;24.638;2023-03-21T01:03:59;97324.28;;;11.16;54.09
10464;BME280;5279;42.048;24.638;2023-03-21T01:06:30;97318.84;;;11.18;54.43
10464;BME280;5279;42.048;24.638;2023-03-21T01:08:57;97315.19;;;11.19;54.77
10464;BME280;5279;42.048;24.638;2023-03-21T01:11:27;97305.19;;;11.13;55.12
10464;BME280;5279;42.048;24.638;2023-03-21T01:13:54;97305.09;;;10.96;54.91
10464;BME280;5279;42.048;24.638;2023-03-21T01:16:21;97301.66;;;11.04;54.58
10464;BME280;5279;42.048;24.638;2023-03-21T01:18:48;97305.09;;;10.96;54.43
10464;BME280;5279;42.048;24.638;2023-03-21T01:21:15;97295.81;;;11.01;55.21
10464;BME280;5279;42.048;24.638;2023-03-21T01:23:43;97296.34;;;11.04;55.73
10464;BME280;5279;42.048;24.638;2023-03-21T01:26:11;97292.50;;;10.98;55.30
10464;BME280;5279;42.048;24.638;2023-03-21T01:28:40;97286.59;;;11.05;55.33
10464;BME280;5279;42.048;24.638;2023-03-21T01:31:09;97288.25;;;11.06;55.46
10464;BME280;5279;42.048;24.638;2023-03-21T01:33:36;97279.13;;;11.00;56.16
10464;BME280;5279;42.048;24.638;2023-03-21T01:36:04;97286.06;;;11.01;55.91
10464;BME280;5279;42.048;24.638;2023-03-21T01:38:31;97277.78;;;11.04;55.55
10464;BME280;5279;42.048;24.638;2023-03-21T01:40:59;97279.31;;;11.07;53.81
10464;BME280;5279;42.048;24.638;2023-03-21T01:43:28;97275.16;;;11.04;54.14
10464;BME280;5279;42.048;24.638;2023-03-21T01:46:37;97277.34;;;11.09;54.96
10464;BME280;5279;42.048;24.638;2023-03-21T01:49:09;97264.44;;;11.14;54.29
10464;BME280;5279;42.048;24.638;2023-03-21T01:51:39;97259.97;;;11.14;54.88
10464;BME280;5279;42.048;24.638;2023-03-21T01:54:11;97252.59;;;11.00;56.92
10464;BME280;5279;42.048;24.638;2023-03-21T01:56:42;97256.28;;;10.81;59.08
10464;BME280;5279;42.048;24.638;2023-03-21T01:59:15;97257.25;;;10.80;56.08
10464;BME280;5279;42.048;24.638;2023-03-21T02:01:47;97248.84;;;10.85;55.76
10464;BME280;5279;42.048;24.638;2023-03-21T02:04:15;97247.72;;;10.87;56.08
10464;BME280;5279;42.048;24.638;2023-03-21T02:06:50;97238.44;;;10.91;55.56
10464;BME280;5279;42.048;24.638;2023-03-21T02:09:21;97249.56;;;10.69;59.85
10464;BME280;5279;42.048;24.638;2023-03-21T02:11:49;97249.38;;;10.71;56.92
10464;BME280;5279;42.048;24.638;2023-03-21T02:14:18;97240.28;;;10.73;58.00
10464;BME280;5279;42.048;24.638;2023-03-21T02:16:52;97239.69;;;10.79;58.34
10464;BME280;5279;42.048;24.638;2023-03-21T02:19:42;97239.06;;;10.85;56.75
10464;BME280;5279;42.048;24.638;2023-03-21T02:22:31;97240.41;;;10.89;56.93
10464;BME280;5279;42.048;24.638;2023-03-21T02:25:30;97238.97;;;10.95;56.77
10464;BME280;5279;42.048;24.638;2023-03-21T02:28:07;97239.50;;;10.98;56.46
10464;BME280;5279;42.048;24.638;2023-03-21T02:31:10;97247.47;;;11.07;56.63
10464;BME280;5279;42.048;24.638;2023-03-21T02:33:59;97250.63;;;11.02;55.74
10464;BME280;5279;42.048;24.638;2023-03-21T02:39:34;97250.97;;;11.07;56.79
10464;BME280;5279;42.048;24.638;2023-03-21T02:42:09;97266.31;;;10.95;58.49
10464;BME280;5279;42.048;24.638;2023-03-21T02:44:44;97266.03;;;10.81;61.48
10464;BME280;5279;42.048;24.638;2023-03-21T02:47:17;97274.22;;;10.87;58.27
10464;BME280;5279;42.048;24.638;2023-03-21T02:49:48;97271.56;;;10.87;58.44
10464;BME280;5279;42.048;24.638;2023-03-21T02:52:19;97272.22;;;10.89;58.44
10464;BME280;5279;42.048;24.638;2023-03-21T02:54:49;97273.16;;;10.80;57.50
10464;BME280;5279;42.048;24.638;2023-03-21T02:57:18;97288.91;;;10.64;57.65
10464;BME280;5279;42.048;24.638;2023-03-21T02:59:45;97274.16;;;10.62;58.08
10464;BME280;5279;42.048;24.638;2023-03-21T03:02:14;97277.81;;;10.61;58.52
10464;BME280;5279;42.048;24.638;2023-03-21T03:04:42;97274.41;;;10.51;60.79
10464;BME280;5279;42.048;24.638;2023-03-21T03:07:19;97285.91;;;10.24;61.14
10464;BME280;5279;42.048;24.638;2023-03-21T03:10:10;97287.31;;;10.18;61.98
10464;BME280;5279;42.048;24.638;2023-03-21T03:12:44;97282.88;;;10.09;65.85
10464;BME280;5279;42.048;24.638;2023-03-21T03:15:20;97291.09;;;10.16;67.32
10464;BME280;5279;42.048;24.638;2023-03-21T03:17:53;97283.72;;;10.10;62.48
10464;BME280;5279;42.048;24.638;2023-03-21T03:20:29;97284.03;;;10.07;63.78
10464;BME280;5279;42.048;24.638;2023-03-21T03:23:05;97283.56;;;9.94;64.56
10464;BME280;5279;42.048;24.638;2023-03-21T03:25:41;97283.25;;;9.97;64.40
10464;BME280;5279;42.048;24.638;2023-03-21T03:28:11;97282.97;;;10.00;64.44
10464;BME280;5279;42.048;24.638;2023-03-21T03:30:41;97284.31;;;10.04;62.39
10464;BME280;5279;42.048;24.638;2023-03-21T03:33:09;97276.53;;;10.02;61.54
10464;BME280;5279;42.048;24.638;2023-03-21T03:35:41;97275.41;;;10.05;61.47
10464;BME280;5279;42.048;24.638;2023-03-21T03:38:10;97275.84;;;10.00;62.90
10464;BME280;5279;42.048;24.638;2023-03-21T03:40:41;97269.31;;;9.77;61.80
10464;BME280;5279;42.048;24.638;2023-03-21T03:43:13;97273.22;;;9.73;62.08
10464;BME280;5279;42.048;24.638;2023-03-21T03:45:43;97275.34;;;9.69;61.96
10464;BME280;5279;42.048;24.638;2023-03-21T03:48:14;97267.41;;;9.69;62.43
10464;BME280;5279;42.048;24.638;2023-03-21T03:50:47;97267.78;;;9.74;62.94
10464;BME280;5279;42.048;24.638;2023-03-21T03:53:19;97258.72;;;9.77;63.59
10464;BME280;5279;42.048;24.638;2023-03-21T03:55:48;97257.63;;;9.43;64.50
10464;BME280;5279;42.048;24.638;2023-03-21T03:58:17;97265.13;;;9.47;64.43
10464;BME280;5279;42.048;24.638;2023-03-21T04:00:45;97259.56;;;9.50;64.58
10464;BME280;5279;42.048;24.638;2023-03-21T04:03:12;97253.69;;;9.56;63.32
10464;BME280;5279;42.048;24.638;2023-03-21T04:05:39;97265.44;;;9.44;63.98
10464;BME280;5279;42.048;24.638;2023-03-21T04:08:06;97251.81;;;9.39;64.16
10464;BME280;5279;42.048;24.638;2023-03-21T04:10:34;97261.56;;;9.39;65.21
10464;BME280;5279;42.048;24.638;2023-03-21T04:13:02;97262.09;;;9.42;63.64
10464;BME280;5279;42.048;24.638;2023-03-21T04:15:29;97266.84;;;9.39;64.13
10464;BME280;5279;42.048;24.638;2023-03-21T04:17:56;97277.97;;;9.42;64.82
10464;BME280;5279;42.048;24.638;2023-03-21T04:20:23;97278.25;;;9.39;64.94
10464;BME280;5279;42.048;24.638;2023-03-21T04:22:50;97282.41;;;9.42;63.11
10464;BME280;5279;42.048;24.638;2023-03-21T04:25:18;97279.22;;;9.38;62.91
10464;BME280;5279;42.048;24.638;2023-03-21T04:27:45;97279.63;;;8.97;67.31
10464;BME280;5279;42.048;24.638;2023-03-21T04:30:16;97282.53;;;8.94;67.85
10464;BME280;5279;42.048;24.638;2023-03-21T04:32:44;97283.06;;;9.07;67.74
10464;BME280;5279;42.048;24.638;2023-03-21T04:35:18;97287.53;;;9.06;64.67
10464;BME280;5279;42.048;24.638;2023-03-21T04:37:45;97278.06;;;9.04;64.36
10464;BME280;5279;42.048;24.638;2023-03-21T04:40:13;97277.94;;;9.15;65.14
10464;BME280;5279;42.048;24.638;2023-03-21T04:42:42;97276.06;;;9.25;65.44
10464;BME280;5279;42.048;24.638;2023-03-21T04:45:10;97284.44;;;9.20;65.53
10464;BME280;5279;42.048;24.638;2023-03-21T04:47:38;97273.13;;;9.28;65.77
10464;BME280;5279;42.048;24.638;2023-03-21T04:50:06;97285.47;;;9.37;65.70
10464;BME280;5279;42.048;24.638;2023-03-21T04:52:33;97286.28;;;9.47;66.56
10464;BME280;5279;42.048;24.638;2023-03-21T04:55:00;97287.69;;;9.51;65.70
10464;BME280;5279;42.048;24.638;2023-03-21T04:57:27;97289.34;;;9.43;65.19
10464;BME280;5279;42.048;24.638;2023-03-21T04:59:54;97294.91;;;9.49;66.02
10464;BME280;5279;42.048;24.638;2023-03-21T05:02:21;97294.31;;;9.55;64.93
10464;BME280;5279;42.048;24.638;2023-03-21T05:04:49;97287.56;;;9.70;65.00
10464;BME280;5279;42.048;24.638;2023-03-21T05:07:16;97284.16;;;9.87;65.33
10464;BME280;5279;42.048;24.638;2023-03-21T05:09:43;97292.66;;;10.09;66.61
10464;BME280;5279;42.048;24.638;2023-03-21T05:12:10;97286.56;;;10.26;65.91
10464;BME280;5279;42.048;24.638;2023-03-21T05:14:36;97283.78;;;10.45;63.30
10464;BME280;5279;42.048;24.638;2023-03-21T05:17:03;97282.28;;;10.60;62.01
10464;BME280;5279;42.048;24.638;2023-03-21T05:19:30;97291.97;;;10.69;61.19
10464;BME280;5279;42.048;24.638;2023-03-21T05:22:03;97287.16;;;10.90;60.72
10464;BME280;5279;42.048;24.638;2023-03-21T05:24:30;97288.09;;;11.07;60.74
10464;BME280;5279;42.048;24.638;2023-03-21T05:26:58;97284.59;;;11.07;60.17
10464;BME280;5279;42.048;24.638;2023-03-21T05:29:27;97280.34;;;10.88;59.17
10464;BME280;5279;42.048;24.638;2023-03-21T05:31:54;97282.66;;;11.09;59.57
10464;BME280;5279;42.048;24.638;2023-03-21T05:34:28;97278.88;;;11.19;59.71
10464;BME280;5279;42.048;24.638;2023-03-21T05:36:57;97277.84;;;11.38;58.56
10464;BME280;5279;42.048;24.638;2023-03-21T05:39:25;97280.91;;;11.51;58.68
10464;BME280;5279;42.048;24.638;2023-03-21T05:41:52;97275.50;;;11.69;58.27
10464;BME280;5279;42.048;24.638;2023-03-21T05:44:19;97278.09;;;11.86;60.82
10464;BME280;5279;42.048;24.638;2023-03-21T05:46:46;97270.19;;;12.02;61.42
10464;BME280;5279;42.048;24.638;2023-03-21T05:49:13;97265.94;;;12.18;60.76
10464;BME280;5279;42.048;24.638;2023-03-21T05:51:40;97264.28;;;12.33;59.93
10464;BME280;5279;42.048;24.638;2023-03-21T05:54:06;97263.81;;;12.45;57.42
10464;BME280;5279;42.048;24.638;2023-03-21T05:56:35;97256.69;;;12.54;55.31
10464;BME280;5279;42.048;24.638;2023-03-21T05:59:02;97262.34;;;12.67;54.88
10464;BME280;5279;42.048;24.638;2023-03-21T06:01:28;97270.63;;;12.72;53.85
10464;BME280;5279;42.048;24.638;2023-03-21T06:03:55;97273.94;;;12.74;54.35
10464;BME280;5279;42.048;24.638;2023-03-21T06:06:22;97276.28;;;12.85;54.69
10464;BME280;5279;42.048;24.638;2023-03-21T06:08:49;97281.59;;;13.01;54.47
10464;BME280;5279;42.048;24.638;2023-03-21T06:11:21;97274.63;;;13.17;55.07
10464;BME280;5279;42.048;24.638;2023-03-21T06:13:50;97279.94;;;13.17;55.22
10464;BME280;5279;42.048;24.638;2023-03-21T06:16:17;97277.94;;;13.27;55.90
10464;BME280;5279;42.048;24.638;2023-03-21T06:18:44;97282.91;;;13.38;54.74
10464;BME280;5279;42.048;24.638;2023-03-21T06:21:11;97275.91;;;13.45;54.35
10464;BME280;5279;42.048;24.638;2023-03-21T06:23:38;97282.22;;;13.44;54.39
10464;BME280;5279;42.048;24.638;2023-03-21T06:26:05;97273.41;;;13.51;52.83
10464;BME280;5279;42.048;24.638;2023-03-21T06:28:32;97281.69;;;13.56;51.74
10464;BME280;5279;42.048;24.638;2023-03-21T06:31:01;97276.47;;;13.71;51.65
10464;BME280;5279;42.048;24.638;2023-03-21T06:33:28;97278.78;;;13.74;52.35
10464;BME280;5279;42.048;24.638;2023-03-21T06:35:56;97276.81;;;13.76;53.85
10464;BME280;5279;42.048;24.638;2023-03-21T06:38:24;97278.44;;;13.77;55.81
10464;BME280;5279;42.048;24.638;2023-03-21T06:40:52;97272.78;;;13.80;58.23
10464;BME280;5279;42.048;24.638;2023-03-21T06:43:19;97275.53;;;13.64;60.74
10464;BME280;5279;42.048;24.638;2023-03-21T06:45:46;97280.88;;;13.48;62.31
10464;BME280;5279;42.048;24.638;2023-03-21T06:48:14;97292.19;;;13.50;62.31
10464;BME280;5279;42.048;24.638;2023-03-21T06:50:41;97295.53;;;13.52;62.83
10464;BME280;5279;42.048;24.638;2023-03-21T06:53:08;97299.47;;;13.64;62.02
10464;BME280;5279;42.048;24.638;2023-03-21T06:55:35;97295.59;;;13.75;61.77
10464;BME280;5279;42.048;24.638;2023-03-21T06:58:02;97296.41;;;13.83;60.84
10464;BME280;5279;42.048;24.638;2023-03-21T07:00:29;97287.13;;;13.79;60.07
10464;BME280;5279;42.048;24.638;2023-03-21T07:02:57;97291.41;;;13.88;60.76
10464;BME280;5279;42.048;24.638;2023-03-21T07:05:26;97285.03;;;13.97;60.46
10464;BME280;5279;42.048;24.638;2023-03-21T07:07:52;97286.28;;;14.17;59.80
10464;BME280;5279;42.048;24.638;2023-03-21T07:10:19;97291.88;;;14.31;58.97
10464;BME280;5279;42.048;24.638;2023-03-21T07:12:46;97294.09;;;14.19;59.27
10464;BME280;5279;42.048;24.638;2023-03-21T07:15:13;97305.53;;;14.36;59.05
10464;BME280;5279;42.048;24.638;2023-03-21T07:17:40;97297.66;;;14.42;58.94
10464;BME280;5279;42.048;24.638;2023-03-21T07:20:08;97299.88;;;14.31;59.42
10464;BME280;5279;42.048;24.638;2023-03-21T07:22:39;97303.19;;;14.41;59.64
10464;BME280;5279;42.048;24.638;2023-03-21T07:25:07;97298.41;;;14.59;59.01
10464;BME280;5279;42.048;24.638;2023-03-21T07:27:34;97287.06;;;14.57;58.26
10464;BME280;5279;42.048;24.638;2023-03-21T07:30:01;97293.13;;;14.73;58.18
10464;BME280;5279;42.048;24.638;2023-03-21T07:32:31;97294.22;;;15.02;57.65
10464;BME280;5279;42.048;24.638;2023-03-21T07:34:58;97292.88;;;15.20;56.92
10464;BME280;5279;42.048;24.638;2023-03-21T07:37:25;97296.22;;;15.22;57.20
10464;BME280;5279;42.048;24.638;2023-03-21T07:39:53;97285.66;;;15.44;56.20
10464;BME280;5279;42.048;24.638;2023-03-21T07:42:20;97287.31;;;15.45;56.42
10464;BME280;5279;42.048;24.638;2023-03-21T07:44:47;97284.34;;;15.62;56.49
10464;BME280;5279;42.048;24.638;2023-03-21T07:47:15;97281.38;;;15.72;56.20
10464;BME280;5279;42.048;24.638;2023-03-21T07:49:42;97286.53;;;15.59;55.87
10464;BME280;5279;42.048;24.638;2023-03-21T07:52:08;97277.59;;;15.52;55.62
10464;BME280;5279;42.048;24.638;2023-03-21T07:54:35;97274.47;;;15.63;54.77
10464;BME280;5279;42.048;24.638;2023-03-21T07:57:03;97274.56;;;15.69;56.23
10464;BME280;5279;42.048;24.638;2023-03-21T07:59:31;97281.19;;;15.73;54.99
10464;BME280;5279;42.048;24.638;2023-03-21T08:01:58;97275.22;;;15.86;54.13
10464;BME280;5279;42.048;24.638;2023-03-21T08:04:25;97267.94;;;15.80;54.82
10464;BME280;5279;42.048;24.638;2023-03-21T08:06:52;97264.13;;;16.04;53.23
10464;BME280;5279;42.048;24.638;2023-03-21T08:09:19;97274.41;;;16.21;52.07
10464;BME280;5279;42.048;24.638;2023-03-21T08:11:46;97266.03;;;16.46;52.22
10464;BME280;5279;42.048;24.638;2023-03-21T08:14:14;97266.94;;;16.53;51.48
10464;BME280;5279;42.048;24.638;2023-03-21T08:16:41;97267.47;;;16.63;52.06
10464;BME280;5279;42.048;24.638;2023-03-21T08:19:07;97269.59;;;16.67;51.35
10464;BME280;5279;42.048;24.638;2023-03-21T08:21:34;97275.53;;;16.84;51.57
10464;BME280;5279;42.048;24.638;2023-03-21T08:24:03;97270.56;;;16.81;51.83
10464;BME280;5279;42.048;24.638;2023-03-21T08:26:31;97281.13;;;17.10;50.87
10464;BME280;5279;42.048;24.638;2023-03-21T08:28:58;97277.13;;;17.27;49.64
10464;BME280;5279;42.048;24.638;2023-03-21T08:31:26;97277.84;;;17.15;49.89
10464;BME280;5279;42.048;24.638;2023-03-21T08:33:54;97272.00;;;17.05;50.09
10464;BME280;5279;42.048;24.638;2023-03-21T08:36:21;97268.63;;;17.17;49.85
10464;BME280;5279;42.048;24.638;2023-03-21T08:38:48;97279.44;;;17.09;50.23
10464;BME280;5279;42.048;24.638;2023-03-21T08:41:19;97277.81;;;17.08;50.71
10464;BME280;5279;42.048;24.638;2023-03-21T08:43:46;97270.97;;;17.06;50.83
10464;BME280;5279;42.048;24.638;2023-03-21T08:46:13;97283.13;;;17.29;49.91
10464;BME280;5279;42.048;24.638;2023-03-21T08:48:41;97275.81;;;17.44;49.51
10464;BME280;5279;42.048;24.638;2023-03-21T08:51:08;97275.00;;;17.72;49.36
10464;BME280;5279;42.048;24.638;2023-03-21T08:53:35;97278.78;;;17.84;47.94
10464;BME280;5279;42.048;24.638;2023-03-21T08:56:02;97275.97;;;17.98;48.32
10464;BME280;5279;42.048;24.638;2023-03-21T08:58:29;97270.34;;;17.87;47.58
10464;BME280;5279;42.048;24.638;2023-03-21T09:00:56;97270.44;;;17.66;48.49
10464;BME280;5279;42.048;24.638;2023-03-21T09:03:23;97269.78;;;17.98;48.19
10464;BME280;5279;42.048;24.638;2023-03-21T09:05:53;97273.94;;;18.07;47.98
10464;BME280;5279;42.048;24.638;2023-03-21T09:08:19;97271.06;;;18.15;47.72
10464;BME280;5279;42.048;24.638;2023-03-21T09:10:47;97280.97;;;18.08;48.18
10464;BME280;5279;42.048;24.638;2023-03-21T09:13:14;97271.53;;;17.78;47.82
10464;BME280;5279;42.048;24.638;2023-03-21T09:15:41;97266.88;;;17.93;48.01
10464;BME280;5279;42.048;24.638;2023-03-21T09:18:08;97261.69;;;17.91;47.49
10464;BME280;5279;42.048;24.638;2023-03-21T09:20:43;97266.91;;;18.06;47.28
10464;BME280;5279;42.048;24.638;2023-03-21T09:23:13;97267.38;;;18.16;47.23
10464;BME280;5279;42.048;24.638;2023-03-21T09:25:43;97265.38;;;18.31;46.95
10464;BME280;5279;42.048;24.638;2023-03-21T09:28:10;97255.75;;;18.50;46.68
10464;BME280;5279;42.048;24.638;2023-03-21T09:30:37;97246.31;;;18.74;46.04
10464;BME280;5279;42.048;24.638;2023-03-21T09:33:04;97246.13;;;18.95;45.78
10464;BME280;5279;42.048;24.638;2023-03-21T09:35:33;97255.19;;;18.94;45.22
10464;BME280;5279;42.048;24.638;2023-03-21T09:38:00;97251.09;;;18.98;44.69
10464;BME280;5279;42.048;24.638;2023-03-21T09:40:49;97254.38;;;19.00;44.83
10464;BME280;5279;42.048;24.638;2023-03-21T09:43:28;97246.75;;;19.17;45.08
10464;BME280;5279;42.048;24.638;2023-03-21T09:46:00;97238.69;;;19.17;44.74
10464;BME280;5279;42.048;24.638;2023-03-21T09:48:34;97235.19;;;19.16;45.07
10464;BME280;5279;42.048;24.638;2023-03-21T09:51:09;97234.13;;;19.30;45.25
10464;BME280;5279;42.048;24.638;2023-03-21T09:53:41;97238.28;;;19.26;44.63
10464;BME280;5279;42.048;24.638;2023-03-21T09:56:11;97231.47;;;19.50;44.49
10464;BME280;5279;42.048;24.638;2023-03-21T09:58:42;97236.59;;;19.64;44.13
10464;BME280;5279;42.048;24.638;2023-03-21T10:01:13;97240.69;;;19.87;44.26
10464;BME280;5279;42.048;24.638;2023-03-21T10:03:47;97229.63;;;20.14;44.40
10464;BME280;5279;42.048;24.638;2023-03-21T10:06:16;97222.25;;;20.41;43.48
10464;BME280;5279;42.048;24.638;2023-03-21T10:08:45;97221.66;;;20.70;42.22
10464;BME280;5279;42.048;24.638;2023-03-21T10:11:17;97227.56;;;20.86;41.76
10464;BME280;5279;42.048;24.638;2023-03-21T10:13:49;97216.53;;;20.62;41.60
10464;BME280;5279;42.048;24.638;2023-03-21T10:16:24;97227.22;;;20.44;42.05
10464;BME280;5279;42.048;24.638;2023-03-21T10:18:53;97225.34;;;20.45;42.41
10464;BME280;5279;42.048;24.638;2023-03-21T10:21:22;97222.84;;;19.99;42.88
10464;BME280;5279;42.048;24.638;2023-03-21T10:23:50;97225.63;;;20.30;42.34
10464;BME280;5279;42.048;24.638;2023-03-21T10:26:20;97221.75;;;20.57;42.54
10464;BME280;5279;42.048;24.638;2023-03-21T10:28:48;97216.91;;;20.73;42.00
10464;BME280;5279;42.048;24.638;2023-03-21T10:31:16;97218.00;;;21.21;40.98
10464;BME280;5279;42.048;24.638;2023-03-21T10:33:45;97215.75;;;21.18;40.90
10464;BME280;5279;42.048;24.638;2023-03-21T10:36:15;97201.69;;;20.85;41.38
10464;BME280;5279;42.048;24.638;2023-03-21T10:38:45;97195.53;;;19.95;42.87
10464;BME280;5279;42.048;24.638;2023-03-21T10:41:13;97205.47;;;19.95;43.83
10464;BME280;5279;42.048;24.638;2023-03-21T10:43:42;97200.63;;;19.59;44.09
10464;BME280;5279;42.048;24.638;2023-03-21T10:46:12;97192.41;;;19.21;44.18
10464;BME280;5279;42.048;24.638;2023-03-21T10:48:43;97187.00;;;19.28;44.54
10464;BME280;5279;42.048;24.638;2023-03-21T10:51:16;97187.84;;;19.15;45.29
10464;BME280;5279;42.048;24.638;2023-03-21T10:53:50;97182.06;;;19.18;45.04
10464;BME280;5279;42.048;24.638;2023-03-21T10:56:17;97179.38;;;19.51;44.56
10464;BME280;5279;42.048;24.638;2023-03-21T10:58:49;97173.53;;;20.18;43.56
10464;BME280;5279;42.048;24.638;2023-03-21T11:01:25;97165.78;;;20.66;42.15
10464;BME280;5279;42.048;24.638;2023-03-21T11:03:56;97166.66;;;21.52;40.47
10464;BME280;5279;42.048;24.638;2023-03-21T11:06:27;97154.19;;;22.24;38.83
10464;BME280;5279;42.048;24.638;2023-03-21T11:08:58;97148.84;;;22.47;38.26
10464;BME280;5279;42.048;24.638;2023-03-21T11:11:27;97153.72;;;22.57;37.59
10464;BME280;5279;42.048;24.638;2023-03-21T11:13:58;97134.44;;;23.18;36.23
10464;BME280;5279;42.048;24.638;2023-03-21T11:16:30;97147.63;;;23.49;36.16
10464;BME280;5279;42.048;24.638;2023-03-21T11:19:02;97143.75;;;23.97;35.20
10464;BME280;5279;42.048;24.638;2023-03-21T11:21:34;97139.38;;;24.80;34.63
10464;BME280;5279;42.048;24.638;2023-03-21T11:24:01;97124.22;;;26.38;32.42
10464;BME280;5279;42.048;24.638;2023-03-21T11:26:30;97128.59;;;27.81;30.13
10464;BME280;5279;42.048;24.638;2023-03-21T11:29:24;97113.41;;;27.90;29.56
10464;BME280;5279;42.048;24.638;2023-03-21T11:31:52;97121.00;;;27.88;28.93
10464;BME280;5279;42.048;24.638;2023-03-21T11:34:27;97112.53;;;27.33;29.56
10464;BME280;5279;42.048;24.638;2023-03-21T11:36:58;97106.44;;;26.57;30.33
10464;BME280;5279;42.048;24.638;2023-03-21T11:39:36;97109.25;;;26.67;30.75
10464;BME280;5279;42.048;24.638;2023-03-21T11:42:08;97095.53;;;26.52;31.18
10464;BME280;5279;42.048;24.638;2023-03-21T11:44:59;97104.06;;;26.12;31.52
10464;BME280;5279;42.048;24.638;2023-03-21T11:47:27;97102.31;;;27.13;30.72
10464;BME280;5279;42.048;24.638;2023-03-21T11:49:54;97093.84;;;27.04;30.32
10464;BME280;5279;42.048;24.638;2023-03-21T11:52:27;97099.19;;;26.63;30.90
10464;BME280;5279;42.048;24.638;2023-03-21T11:55:12;97087.06;;;25.73;31.66
10464;BME280;5279;42.048;24.638;2023-03-21T11:57:49;97088.13;;;25.50;32.14
10464;BME280;5279;42.048;24.638;2023-03-21T12:00:28;97098.28;;;24.72;32.66
10464;BME280;5279;42.048;24.638;2023-03-21T12:03:11;97085.78;;;24.09;33.71
10464;BME280;5279;42.048;24.638;2023-03-21T12:05:45;97076.00;;;23.52;34.45
10464;BME280;5279;42.048;24.638;2023-03-21T12:08:25;97073.59;;;22.27;36.71
10464;BME280;5279;42.048;24.638;2023-03-21T12:11:02;97073.81;;;22.38;36.74
10464;BME280;5279;42.048;24.638;2023-03-21T12:13:46;97079.41;;;22.13;37.58
10464;BME280;5279;42.048;24.638;2023-03-21T12:16:28;97078.97;;;22.16;37.50
10464;BME280;5279;42.048;24.638;2023-03-21T12:19:08;97074.31;;;22.05;37.66
10464;BME280;5279;42.048;24.638;2023-03-21T12:21:42;97063.47;;;21.63;37.83
10464;BME280;5279;42.048;24.638;2023-03-21T12:24:13;97057.41;;;21.32;38.33
10464;BME280;5279;42.048;24.638;2023-03-21T12:26:47;97064.84;;;21.36;38.51
10464;BME280;5279;42.048;24.638;2023-03-21T12:32:19;97046.97;;;20.99;39.51
10464;BME280;5279;42.048;24.638;2023-03-21T12:35:18;97044.09;;;21.00;39.42
10464;BME280;5279;42.048;24.638;2023-03-21T12:37:52;97048.88;;;20.73;40.30
10464;BME280;5279;42.048;24.638;2023-03-21T12:40:34;97050.78;;;20.48;39.75
10464;BME280;5279;42.048;24.638;2023-03-21T12:43:30;97043.50;;;20.24;40.99
10464;BME280;5279;42.048;24.638;2023-03-21T12:46:03;97051.97;;;19.96;41.94
10464;BME280;5279;42.048;24.638;2023-03-21T12:48:38;97039.72;;;19.76;42.18
10464;BME280;5279;42.048;24.638;2023-03-21T12:51:10;97034.28;;;19.44;43.28
10464;BME280;5279;42.048;24.638;2023-03-21T12:53:47;97041.53;;;19.24;44.26
10464;BME280;5279;42.048;24.638;2023-03-21T12:56:20;97037.63;;;19.27;44.30
10464;BME280;5279;42.048;24.638;2023-03-21T12:58:53;97049.03;;;19.09;45.43
10464;BME280;5279;42.048;24.638;2023-03-21T13:01:23;97047.81;;;19.12;45.97
10464;BME280;5279;42.048;24.638;2023-03-21T13:04:04;97032.56;;;19.05;45.81
10464;BME280;5279;42.048;24.638;2023-03-21T13:06:34;97036.28;;;18.98;46.75
10464;BME280;5279;42.048;24.638;2023-03-21T13:09:08;97035.03;;;18.94;47.04
10464;BME280;5279;42.048;24.638;2023-03-21T13:11:37;97026.81;;;18.89;47.79
10464;BME280;5279;42.048;24.638;2023-03-21T13:14:05;97027.22;;;18.86;47.58
10464;BME280;5279;42.048;24.638;2023-03-21T13:16:36;97019.16;;;18.92;47.93
10464;BME280;5279;42.048;24.638;2023-03-21T13:19:13;97026.81;;;18.76;49.21
10464;BME280;5279;42.048;24.638;2023-03-21T13:21:49;97021.00;;;18.92;49.11
10464;BME280;5279;42.048;24.638;2023-03-21T13:24:31;97017.88;;;19.08;48.83
10464;BME280;5279;42.048;24.638;2023-03-21T13:27:01;97018.88;;;19.14;49.07